U.S. Weather Extremes for
Saturday, October 20, 2018

High Temperature


108°F at New Orleans/Nas, LA

Low Temperature


16°F at Alamosa Muni(awos), CO
16°F at Williston/Sloulin, ND

High Precipitation


1.53in at Troy Municipal, AL


Data for lower 48 states and courtesy of
NWS-CPC

North Georgia & Southern Appalachians METAR Reports

KDZJ - Blairsville, Georgia, USA
Distance from station: NNW 11mi, 18km
Updated: Sun, 21-Oct-2018 2:55pm CDT
Clear
Clear
 Wind from N
Wind:
N 6 mph 9 km/h
Temperature: 57°F , 14°C
Dew Point: 27°F , -3°C
Humidity: 31%
Barometer: 30.23 inHg , 1023.7 hPa
Clouds: Clear
Visibility: 10 miles , 16 km
2018/10/21 19:55 KDZJ 211955Z AUTO 35005KT 10SM CLR 14/M03 A3023 RMK AO2 T01391033
KAJR - Cornelia, Georgia, USA
Distance from station: SE 25mi, 41km
Updated: Sun, 21-Oct-2018 2:55pm CDT
Clear
Clear
 Wind from S
Wind:
S 3 mph 6 km/h
Temperature: 61°F , 16°C
Dew Point: 27°F , -3°C
Humidity: 27%
Barometer: 30.19 inHg , 1022.4 hPa
Clouds: Clear
Visibility: 10 miles , 16 km
2018/10/21 19:55 KAJR 211955Z AUTO 19003KT 10SM CLR 16/M03 A3019 RMK AO2 T01601026
 
KGVL - Gainesville, Georgia, USA
Distance from station: S 31mi, 50km
Updated: Sun, 21-Oct-2018 2:53pm CDT
Clear
Clear
 Wind from calm
Wind:
Calm
Temperature: 63°F , 17°C
Dew Point: 25°F , -4°C
Humidity: 24%
Barometer: 30.21 inHg , 1023 hPa
Clouds: Clear
Visibility: 10 miles , 16 km
2018/10/21 19:53 KGVL 211953Z AUTO 00000KT 10SM CLR 17/M04 A3021 RMK AO2 SLP223 T01721044 $
KRHP - Andrews, North Carolina, USA
Distance from station: N 33mi, 53km
Updated: Sun, 21-Oct-2018 3:00pm CDT
Clear
Clear
 Wind from WNW
Wind:
WNW 6 mph 9 km/h
Temperature: 59°F , 15°C
Dew Point: 23°F , -5°C
Humidity: 25%
Barometer: 30.20 inHg , 1022.7 hPa
Clouds: Clear
Visibility: 10 miles , 16 km
2018/10/21 20:00 KRHP 212000Z AUTO 30005KT 10SM CLR 15/M05 A3020 RMK AO2 T01541051
 
KJZP - Jasper, Georgia, USA
Distance from station: WSW 35mi, 57km
Updated: Sun, 21-Oct-2018 2:55pm CDT
Clear
Clear
 Wind from N
Wind:
N 9 mph 15 km/h
Temperature: 57°F , 14°C
Dew Point: 28°F , -2°C
Humidity: 33%
Barometer: 30.24 inHg , 1024 hPa
Clouds: Clear
Visibility: 10 miles , 16 km
2018/10/21 19:55 KJZP 211955Z AUTO 36008KT 10SM CLR 14/M02 A3024 RMK AO2 T01431018 PNO
KTOC - Toccoa, Georgia, USA
Distance from station: E 36mi, 58km
Updated: Sun, 21-Oct-2018 2:55pm CDT
Clear
Clear
 Wind from calm
Wind:
Calm
Temperature: 63°F , 17°C
Dew Point: 25°F , -4°C
Humidity: 24%
Barometer: 30.20 inHg , 1022.7 hPa
Clouds: Clear
2018/10/21 19:55 KTOC 211955Z AUTO 00000KT CLR 17/M04 A3020 RMK AO2 T01731041 PWINO
 
KCNI - Canton/Cherokee, Georgia, USA
Distance from station: SW 39mi, 63km
Updated: Sun, 21-Oct-2018 2:50pm CDT
Clear
Clear
 Wind from WNW
Wind:
WNW 6 mph 9 km/h
Temperature: 63°F , 17°C
Dew Point: 19°F , -7°C
Humidity: 19%
Barometer: 30.22 inHg , 1023.4 hPa
Clouds: Clear
Visibility: 10 miles , 16 km
2018/10/21 19:50 KCNI 211950Z AUTO 29005KT 10SM CLR 17/M07 A3022 RMK AO2
KJCA - Jefferson, Georgia, USA
Distance from station: SSE 41mi, 67km
Updated: Sun, 21-Oct-2018 2:55pm CDT
Clear
Clear
 Wind from calm
Wind:
Calm
Temperature: 63°F , 17°C
Dew Point: 28°F , -2°C
Humidity: 27%
Barometer: 30.20 inHg , 1022.7 hPa
Clouds: Clear
Visibility: 10 miles , 16 km
2018/10/21 19:55 KJCA 211955Z AUTO 00000KT 10SM CLR 17/M02 A3020 RMK AO2 T01661025
 
K1A5 - Macon/Franklin, North Carolina, USA
Distance from station: NE 45mi, 73km
Updated: Sun, 21-Oct-2018 3:00pm CDT
Clear
Clear
 Wind from W
Wind:
W 3 mph 6 km/h
Temperature: 59°F , 15°C
Dew Point: 30°F , -1°C
Humidity: 34%
Barometer: 30.20 inHg , 1022.7 hPa
Clouds: Clear
Visibility: 10 miles , 16 km
2018/10/21 20:00 K1A5 212000Z AUTO 26003KT 10SM CLR 15/M01 A3020 RMK AO2 T01461006
KLZU - Lawrenceville, Georgia, USA
Distance from station: S 50mi, 81km
Updated: Sun, 21-Oct-2018 2:56pm CDT
Clear
Clear
 Wind from calm
Wind:
Calm
Temperature: 63°F , 17°C
Dew Point: 27°F , -3°C
Humidity: 25%
Barometer: 30.19 inHg , 1022.4 hPa
Clouds: Clear
Visibility: 10 miles , 16 km
2018/10/21 19:56 KLZU 211956Z 00000KT 10SM CLR 17/M03 A3019 RMK AO2 SLP233 T01721033
 
K18A - Canon/Franklin, Georgia, USA
Distance from station: ESE 51mi, 82km
Updated: Sun, 21-Oct-2018 2:55pm CDT
Clear
Clear
 Wind from calm
Wind:
Calm
Temperature: 63°F , 17°C
Dew Point: 23°F , -5°C
Humidity: 22%
Barometer: 30.20 inHg , 1022.7 hPa
Clouds: Clear
Visibility: 10 miles , 16 km
2018/10/21 19:55 K18A 211955Z AUTO 00000KT 10SM CLR 17/M05 A3020 RMK AO2 T01721046
KWDR - Winder/Barrow, Georgia, USA
Distance from station: SSE 52mi, 84km
Updated: Sun, 21-Oct-2018 2:55pm CDT
Clear
Clear
 Wind from ENE
Wind:
ENE 3 mph 6 km/h
Temperature: 63°F , 17°C
Dew Point: 25°F , -4°C
Humidity: 24%
Barometer: 30.22 inHg , 1023.4 hPa
Clouds: Clear
Visibility: 10 miles , 16 km
2018/10/21 19:55 KWDR 211955Z AUTO 06003KT 10SM CLR 17/M04 A3022 RMK AO1
 
KDNN - Dalton, Georgia, USA
Distance from station: W 54mi, 87km
Updated: Sun, 21-Oct-2018 2:55pm CDT
Clear
Clear
 Wind from NNW
Wind:
NNW 13 mph 20 km/h
Temperature: 57°F , 14°C
Dew Point: 32°F , 0°C
Humidity: 39%
Barometer: 30.27 inHg , 1025.1 hPa
Clouds: Clear
Visibility: 10 miles , 16 km
2018/10/21 19:55 KDNN 211955Z AUTO 34011KT 10SM CLR 14/00 A3027 RMK AO2
K24A - Sylva, North Carolina, USA
Distance from station: NE 58mi, 93km
Updated: Sun, 21-Oct-2018 3:00pm CDT
Clear
Clear
 Wind from calm
Wind:
Calm
Temperature: 55°F , 13°C
Dew Point: 21°F , -6°C
Humidity: 26%
Barometer: 30.21 inHg , 1023 hPa
Clouds: Clear
Visibility: 10 miles , 16 km
2018/10/21 20:00 K24A 212000Z AUTO 00000KT 10SM CLR 13/M06 A3021 RMK AO2 T01301060
 
KCEU - Clemson, South Carolina, USA
Distance from station: E 59mi, 95km
Updated: Sun, 21-Oct-2018 2:54pm CDT
Clear
Clear
 Wind from varies
Wind:
varies 5 mph 7 km/h
Temperature: 63°F , 17°C
Dew Point: 27°F , -3°C
Humidity: 25%
Barometer: 30.21 inHg , 1023 hPa
Clouds: Clear
Visibility: 10 miles , 16 km
2018/10/21 19:54 KCEU 211954Z AUTO VRB04KT 10SM CLR 17/M03 A3021 RMK AO2 SLP225 T01671028
KMMI - Athens/Mcminn, Tennessee, USA
Distance from station: NW 60mi, 97km
Updated: Sun, 21-Oct-2018 2:55pm CDT
Clear
Clear
 Wind from N
Wind:
N 0 mph 0 km/h
, Gust: 13 mph 20 km/h
Temperature: 54°F , 12°C
Dew Point: 28°F , -2°C
Humidity: 38%
Barometer: 30.29 inHg , 1025.7 hPa
Clouds: Clear
Visibility: 10 miles , 16 km
2018/10/21 19:55 KMMI 211955Z AUTO 00000G11KT 10SM CLR 12/M02 A3029 RMK A01
 
KCZL - Calhoun, Georgia, USA
Distance from station: WSW 61mi, 97km
Updated: Sun, 21-Oct-2018 2:55pm CDT
Clear
Clear
 Wind from N
Wind:
N 7 mph 11 km/h
Temperature: 59°F , 15°C
Dew Point: 28°F , -2°C
Humidity: 31%
Barometer: 30.26 inHg , 1024.7 hPa
Clouds: Clear
Visibility: 10 miles , 16 km
2018/10/21 19:55 KCZL 211955Z AUTO 01006KT 10SM CLR 15/M02 A3026 RMK AO2
KPDK - Peachtree/Dekalb, Georgia, USA
Distance from station: SSW 61mi, 98km
Updated: Sun, 21-Oct-2018 2:53pm CDT
Clear
Clear
 Wind from ENE
Wind:
ENE 5 mph 7 km/h
Temperature: 63°F , 17°C
Dew Point: 27°F , -3°C
Humidity: 25%
Barometer: 30.20 inHg , 1022.7 hPa
Clouds: Clear
Visibility: 10 miles , 16 km
2018/10/21 19:53 KPDK 211953Z 06004KT 10SM CLR 17/M03 A3020 RMK AO2 SLP224 T01721033
 
KRZR - Cleveland Reg., Tennessee, USA
Distance from station: NW 61mi, 98km
Updated: Sun, 21-Oct-2018 2:55pm CDT
Clear
Clear
 Wind from varies
Wind:
varies 6 mph 9 km/h
, Gust: 14 mph 22 km/h
Temperature: 55°F , 13°C
Dew Point: 28°F , -2°C
Humidity: 36%
Barometer: 30.25 inHg , 1024.4 hPa
Clouds: Clear
Visibility: 10 miles , 16 km
2018/10/21 19:55 KRZR 211955Z AUTO VRB05G12KT 10SM CLR 13/M02 A3025 RMK A01
KRYY - Marietta Mccolum, Georgia, USA
Distance from station: SW 62mi, 99km
Updated: Sun, 21-Oct-2018 2:48pm CDT
Clear
Clear
 Wind from varies
Wind:
varies 7 mph 11 km/h
Temperature: 61°F , 16°C
Dew Point: 28°F , -2°C
Humidity: 29%
Barometer: 30.22 inHg , 1023.4 hPa
Clouds: Clear
Visibility: 10 miles , 16 km
2018/10/21 19:48 KRYY 211948Z VRB06KT 10SM CLR 16/M02 A3022 RMK AO2 SLP954 T01611022

Metar display script from Saratoga-Weather.org